sensor_id;sensor_type;location;lat;lon;timestamp;pressure;altitude;pressure_sealevel;temperature;humidity
29903;BME280;30288;50.514;9.678;2023-10-31T00:01:17;96870.38;;;12.15;100.00
29903;BME280;30288;50.514;9.678;2023-10-31T00:03:23;96872.88;;;12.15;100.00
29903;BME280;30288;50.514;9.678;2023-10-31T00:05:28;96872.00;;;12.16;100.00
29903;BME280;30288;50.514;9.678;2023-10-31T00:07:37;96872.09;;;12.14;100.00
29903;BME280;30288;50.514;9.678;2023-10-31T00:09:42;96864.50;;;12.14;100.00
29903;BME280;30288;50.514;9.678;2023-10-31T00:11:47;96861.25;;;12.12;100.00
29903;BME280;30288;50.514;9.678;2023-10-31T00:13:53;96858.75;;;12.12;100.00
29903;BME280;30288;50.514;9.678;2023-10-31T00:15:59;96854.41;;;12.14;100.00
29903;BME280;30288;50.514;9.678;2023-10-31T00:18:05;96857.63;;;12.16;100.00
29903;BME280;30288;50.514;9.678;2023-10-31T00:20:08;96863.59;;;12.15;100.00
29903;BME280;30288;50.514;9.678;2023-10-31T00:22:14;96855.22;;;12.15;100.00
29903;BME280;30288;50.514;9.678;2023-10-31T00:24:22;96850.19;;;12.15;100.00
29903;BME280;30288;50.514;9.678;2023-10-31T00:26:28;96854.22;;;12.17;100.00
29903;BME280;30288;50.514;9.678;2023-10-31T00:28:34;96861.09;;;12.15;100.00
29903;BME280;30288;50.514;9.678;2023-10-31T00:30:39;96867.03;;;12.14;100.00
29903;BME280;30288;50.514;9.678;2023-10-31T00:32:45;96865.19;;;12.16;100.00
29903;BME280;30288;50.514;9.678;2023-10-31T00:34:51;96871.88;;;12.17;100.00
29903;BME280;30288;50.514;9.678;2023-10-31T00:36:54;96868.66;;;12.15;100.00
29903;BME280;30288;50.514;9.678;2023-10-31T00:39:00;96872.69;;;12.18;100.00
29903;BME280;30288;50.514;9.678;2023-10-31T00:41:08;96866.81;;;12.17;100.00
29903;BME280;30288;50.514;9.678;2023-10-31T00:43:14;96861.09;;;12.15;100.00
29903;BME280;30288;50.514;9.678;2023-10-31T00:45:20;96866.81;;;12.17;100.00
29903;BME280;30288;50.514;9.678;2023-10-31T00:47:25;96870.38;;;12.15;100.00
29903;BME280;30288;50.514;9.678;2023-10-31T00:49:31;96868.53;;;12.17;100.00
29903;BME280;30288;50.514;9.678;2023-10-31T00:51:34;96871.06;;;12.17;100.00
29903;BME280;30288;50.514;9.678;2023-10-31T00:53:39;96876.03;;;12.18;100.00
29903;BME280;30288;50.514;9.678;2023-10-31T00:55:44;96876.03;;;12.18;100.00
29903;BME280;30288;50.514;9.678;2023-10-31T00:57:53;96880.06;;;12.21;100.00
29903;BME280;30288;50.514;9.678;2023-10-31T00:59:58;96878.44;;;12.20;100.00
29903;BME280;30288;50.514;9.678;2023-10-31T01:02:04;96876.03;;;12.18;100.00
29903;BME280;30288;50.514;9.678;2023-10-31T01:04:09;96867.63;;;12.18;100.00
29903;BME280;30288;50.514;9.678;2023-10-31T01:06:15;96872.78;;;12.16;100.00
29903;BME280;30288;50.514;9.678;2023-10-31T01:08:20;96877.81;;;12.16;100.00
29903;BME280;30288;50.514;9.678;2023-10-31T01:10:26;96880.63;;;12.12;100.00
29903;BME280;30288;50.514;9.678;2023-10-31T01:12:31;96878.41;;;12.07;100.00
29903;BME280;30288;50.514;9.678;2023-10-31T01:14:39;96876.81;;;12.06;100.00
29903;BME280;30288;50.514;9.678;2023-10-31T01:16:44;96884.38;;;12.06;100.00
29903;BME280;30288;50.514;9.678;2023-10-31T01:18:50;96886.28;;;12.03;100.00
29903;BME280;30288;50.514;9.678;2023-10-31T01:20:55;96880.63;;;11.99;100.00
29903;BME280;30288;50.514;9.678;2023-10-31T01:23:00;96883.66;;;12.04;100.00
29903;BME280;30288;50.514;9.678;2023-10-31T01:25:06;96888.91;;;12.01;100.00
29903;BME280;30288;50.514;9.678;2023-10-31T01:27:12;96880.81;;;11.96;100.00
29903;BME280;30288;50.514;9.678;2023-10-31T01:29:17;96899.38;;;11.95;100.00
29903;BME280;30288;50.514;9.678;2023-10-31T01:31:23;96899.16;;;11.98;100.00
29903;BME280;30288;50.514;9.678;2023-10-31T01:33:28;96901.00;;;11.96;100.00
29903;BME280;30288;50.514;9.678;2023-10-31T01:35:34;96905.84;;;11.99;100.00
29903;BME280;30288;50.514;9.678;2023-10-31T01:37:39;96894.94;;;11.99;100.00
29903;BME280;30288;50.514;9.678;2023-10-31T01:39:44;96894.53;;;11.92;100.00
29903;BME280;30288;50.514;9.678;2023-10-31T01:41:49;96886.03;;;11.93;100.00
29903;BME280;30288;50.514;9.678;2023-10-31T01:43:57;96896.84;;;11.95;100.00
29903;BME280;30288;50.514;9.678;2023-10-31T01:46:03;96890.91;;;11.96;100.00
29903;BME280;30288;50.514;9.678;2023-10-31T01:48:11;96899.16;;;11.98;100.00
29903;BME280;30288;50.514;9.678;2023-10-31T01:50:17;96897.59;;;11.97;100.00
29903;BME280;30288;50.514;9.678;2023-10-31T01:52:23;96906.41;;;11.90;100.00
29903;BME280;30288;50.514;9.678;2023-10-31T01:54:28;96906.78;;;11.84;100.00
29903;BME280;30288;50.514;9.678;2023-10-31T01:56:34;96913.66;;;11.82;100.00
29903;BME280;30288;50.514;9.678;2023-10-31T01:58:37;96918.59;;;11.83;100.00
29903;BME280;30288;50.514;9.678;2023-10-31T02:00:45;96915.66;;;11.77;100.00
29903;BME280;30288;50.514;9.678;2023-10-31T02:02:52;96917.09;;;11.81;100.00
29903;BME280;30288;50.514;9.678;2023-10-31T02:05:02;96920.50;;;11.80;100.00
29903;BME280;30288;50.514;9.678;2023-10-31T02:07:07;96912.41;;;11.75;100.00
29903;BME280;30288;50.514;9.678;2023-10-31T02:09:10;96917.81;;;11.69;100.00
29903;BME280;30288;50.514;9.678;2023-10-31T02:11:16;96919.63;;;11.67;100.00
29903;BME280;30288;50.514;9.678;2023-10-31T02:13:22;96925.03;;;11.61;100.00
29903;BME280;30288;50.514;9.678;2023-10-31T02:15:27;96923.22;;;11.63;100.00
29903;BME280;30288;50.514;9.678;2023-10-31T02:17:33;96921.81;;;11.59;100.00
29903;BME280;30288;50.514;9.678;2023-10-31T02:19:35;96920.53;;;11.52;100.00
29903;BME280;30288;50.514;9.678;2023-10-31T02:21:43;96923.97;;;11.51;100.00
29903;BME280;30288;50.514;9.678;2023-10-31T02:23:59;96924.97;;;11.48;100.00
29903;BME280;30288;50.514;9.678;2023-10-31T02:26:05;96916.06;;;11.43;100.00
29903;BME280;30288;50.514;9.678;2023-10-31T02:28:08;96919.66;;;11.38;100.00
29903;BME280;30288;50.514;9.678;2023-10-31T02:30:14;96919.47;;;11.41;100.00
29903;BME280;30288;50.514;9.678;2023-10-31T02:32:18;96915.09;;;11.45;100.00
29903;BME280;30288;50.514;9.678;2023-10-31T02:34:23;96912.66;;;11.44;100.00
29903;BME280;30288;50.514;9.678;2023-10-31T02:36:28;96912.44;;;11.47;100.00
29903;BME280;30288;50.514;9.678;2023-10-31T02:38:39;96912.72;;;11.42;100.00
29903;BME280;30288;50.514;9.678;2023-10-31T02:40:44;96916.94;;;11.41;100.00
29903;BME280;30288;50.514;9.678;2023-10-31T02:42:50;96928.84;;;11.39;100.00
29903;BME280;30288;50.514;9.678;2023-10-31T02:44:53;96933.38;;;11.34;100.00
29903;BME280;30288;50.514;9.678;2023-10-31T02:46:58;96929.41;;;11.30;100.00
29903;BME280;30288;50.514;9.678;2023-10-31T02:49:04;96940.19;;;11.32;100.00
29903;BME280;30288;50.514;9.678;2023-10-31T02:51:11;96948.66;;;11.31;100.00
29903;BME280;30288;50.514;9.678;2023-10-31T02:53:17;96940.03;;;11.35;100.00
29903;BME280;30288;50.514;9.678;2023-10-31T02:55:25;96951.91;;;11.33;100.00
29903;BME280;30288;50.514;9.678;2023-10-31T02:57:31;96965.41;;;11.32;100.00
29903;BME280;30288;50.514;9.678;2023-10-31T02:59:37;96970.28;;;11.35;100.00
29903;BME280;30288;50.514;9.678;2023-10-31T03:01:39;96972.25;;;11.30;100.00
29903;BME280;30288;50.514;9.678;2023-10-31T03:03:45;96976.56;;;11.28;100.00
29903;BME280;30288;50.514;9.678;2023-10-31T03:05:51;96988.97;;;11.31;100.00
29903;BME280;30288;50.514;9.678;2023-10-31T03:07:56;96984.31;;;11.25;100.00
29903;BME280;30288;50.514;9.678;2023-10-31T03:10:02;96996.91;;;11.25;100.00
29903;BME280;30288;50.514;9.678;2023-10-31T03:12:11;96988.63;;;11.23;100.00
29903;BME280;30288;50.514;9.678;2023-10-31T03:14:16;96989.34;;;11.25;100.00
29903;BME280;30288;50.514;9.678;2023-10-31T03:16:22;96993.84;;;11.34;100.00
29903;BME280;30288;50.514;9.678;2023-10-31T03:18:27;96999.69;;;11.35;100.00
29903;BME280;30288;50.514;9.678;2023-10-31T03:20:32;96995.97;;;11.26;100.00
29903;BME280;30288;50.514;9.678;2023-10-31T03:22:35;96999.31;;;11.27;100.00
29903;BME280;30288;50.514;9.678;2023-10-31T03:24:40;97004.28;;;11.28;100.00
29903;BME280;30288;50.514;9.678;2023-10-31T03:26:46;97004.81;;;11.19;100.00
29903;BME280;30288;50.514;9.678;2023-10-31T03:28:53;97002.50;;;11.16;100.00
29903;BME280;30288;50.514;9.678;2023-10-31T03:31:00;97006.72;;;11.16;100.00
29903;BME280;30288;50.514;9.678;2023-10-31T03:33:06;97005.16;;;11.13;100.00
29903;BME280;30288;50.514;9.678;2023-10-31T03:35:11;97005.16;;;11.13;100.00
29903;BME280;30288;50.514;9.678;2023-10-31T03:37:16;97013.63;;;11.12;100.00
29903;BME280;30288;50.514;9.678;2023-10-31T03:39:21;97015.25;;;11.13;100.00
29903;BME280;30288;50.514;9.678;2023-10-31T03:41:27;97017.41;;;11.05;100.00
29903;BME280;30288;50.514;9.678;2023-10-31T03:43:32;97011.72;;;11.02;100.00
29903;BME280;30288;50.514;9.678;2023-10-31T03:45:41;97018.38;;;11.03;100.00
29903;BME280;30288;50.514;9.678;2023-10-31T03:47:46;97021.00;;;11.01;100.00
29903;BME280;30288;50.514;9.678;2023-10-31T03:49:52;97034.47;;;11.00;100.00
29903;BME280;30288;50.514;9.678;2023-10-31T03:51:57;97039.53;;;11.00;100.00
29903;BME280;30288;50.514;9.678;2023-10-31T03:54:03;97023.66;;;10.98;100.00
29903;BME280;30288;50.514;9.678;2023-10-31T03:56:10;97020.53;;;10.94;100.00
29903;BME280;30288;50.514;9.678;2023-10-31T03:58:16;97031.84;;;10.87;100.00
29903;BME280;30288;50.514;9.678;2023-10-31T04:00:18;97040.22;;;10.88;100.00
29903;BME280;30288;50.514;9.678;2023-10-31T04:02:26;97037.94;;;10.83;100.00
29903;BME280;30288;50.514;9.678;2023-10-31T04:04:32;97044.84;;;10.80;100.00
29903;BME280;30288;50.514;9.678;2023-10-31T04:06:37;97046.94;;;10.73;100.00
29903;BME280;30288;50.514;9.678;2023-10-31T04:08:45;97057.81;;;10.74;100.00
29903;BME280;30288;50.514;9.678;2023-10-31T04:10:50;97056.44;;;10.68;100.00
29903;BME280;30288;50.514;9.678;2023-10-31T04:12:56;97060.72;;;10.66;100.00
29903;BME280;30288;50.514;9.678;2023-10-31T04:15:02;97058.28;;;10.65;100.00
29903;BME280;30288;50.514;9.678;2023-10-31T04:17:05;97065.84;;;10.65;100.00
29903;BME280;30288;50.514;9.678;2023-10-31T04:19:13;97068.34;;;10.65;100.00
29903;BME280;30288;50.514;9.678;2023-10-31T04:21:18;97072.94;;;10.58;100.00
29903;BME280;30288;50.514;9.678;2023-10-31T04:23:23;97071.47;;;10.54;100.00
29903;BME280;30288;50.514;9.678;2023-10-31T04:25:29;97079.28;;;10.49;100.00
29903;BME280;30288;50.514;9.678;2023-10-31T04:27:35;97074.41;;;10.46;100.00
29903;BME280;30288;50.514;9.678;2023-10-31T04:29:40;97082.28;;;10.40;100.00
29903;BME280;30288;50.514;9.678;2023-10-31T04:31:45;97081.72;;;10.35;100.00
29903;BME280;30288;50.514;9.678;2023-10-31T04:33:50;97072.69;;;10.31;100.00
29903;BME280;30288;50.514;9.678;2023-10-31T04:35:58;97076.38;;;10.26;100.00
29903;BME280;30288;50.514;9.678;2023-10-31T04:38:03;97077.34;;;10.23;100.00
29903;BME280;30288;50.514;9.678;2023-10-31T04:40:11;97084.25;;;10.20;100.00
29903;BME280;30288;50.514;9.678;2023-10-31T04:42:17;97077.75;;;10.16;100.00
29903;BME280;30288;50.514;9.678;2023-10-31T04:44:22;97075.34;;;10.13;100.00
29903;BME280;30288;50.514;9.678;2023-10-31T04:46:25;97076.34;;;10.10;100.00
29903;BME280;30288;50.514;9.678;2023-10-31T04:48:31;97080.56;;;10.09;100.00
29903;BME280;30288;50.514;9.678;2023-10-31T04:50:38;97083.00;;;10.11;100.00
29903;BME280;30288;50.514;9.678;2023-10-31T04:52:46;97083.88;;;10.10;100.00
29903;BME280;30288;50.514;9.678;2023-10-31T04:54:51;97091.44;;;10.10;100.00
29903;BME280;30288;50.514;9.678;2023-10-31T04:56:57;97094.09;;;10.07;100.00
29903;BME280;30288;50.514;9.678;2023-10-31T04:59:03;97087.53;;;10.04;100.00
29903;BME280;30288;50.514;9.678;2023-10-31T05:01:09;97088.50;;;10.02;100.00
29903;BME280;30288;50.514;9.678;2023-10-31T05:03:14;97093.53;;;10.02;100.00
29903;BME280;30288;50.514;9.678;2023-10-31T05:05:20;97096.13;;;10.00;100.00
29903;BME280;30288;50.514;9.678;2023-10-31T05:07:25;97099.22;;;10.05;100.00
29903;BME280;30288;50.514;9.678;2023-10-31T05:09:33;97109.78;;;10.12;100.00
29903;BME280;30288;50.514;9.678;2023-10-31T05:11:38;97117.47;;;10.09;100.00
29903;BME280;30288;50.514;9.678;2023-10-31T05:13:44;97126.81;;;10.07;100.00
29903;BME280;30288;50.514;9.678;2023-10-31T05:15:49;97125.47;;;10.00;100.00
29903;BME280;30288;50.514;9.678;2023-10-31T05:17:55;97117.53;;;9.92;100.00
29903;BME280;30288;50.514;9.678;2023-10-31T05:20:00;97129.66;;;9.84;100.00
29903;BME280;30288;50.514;9.678;2023-10-31T05:22:06;97132.16;;;9.84;100.00
29903;BME280;30288;50.514;9.678;2023-10-31T05:24:12;97133.09;;;9.83;100.00
29903;BME280;30288;50.514;9.678;2023-10-31T05:26:19;97131.75;;;9.76;100.00
29903;BME280;30288;50.514;9.678;2023-10-31T05:28:25;97138.72;;;9.71;100.00
29903;BME280;30288;50.514;9.678;2023-10-31T05:30:30;97141.97;;;9.73;100.00
29903;BME280;30288;50.514;9.678;2023-10-31T05:32:35;97137.75;;;9.73;100.00
29903;BME280;30288;50.514;9.678;2023-10-31T05:34:41;97136.06;;;9.74;100.00
29903;BME280;30288;50.514;9.678;2023-10-31T05:36:46;97136.94;;;9.73;100.00
29903;BME280;30288;50.514;9.678;2023-10-31T05:38:51;97132.88;;;9.70;100.00
29903;BME280;30288;50.514;9.678;2023-10-31T05:40:57;97136.94;;;9.73;100.00
29903;BME280;30288;50.514;9.678;2023-10-31T05:43:05;97131.91;;;9.73;100.00
29903;BME280;30288;50.514;9.678;2023-10-31T05:45:10;97139.53;;;9.71;100.00
29903;BME280;30288;50.514;9.678;2023-10-31T05:47:16;97135.16;;;9.75;100.00
29903;BME280;30288;50.514;9.678;2023-10-31T05:49:22;97131.09;;;9.72;100.00
29903;BME280;30288;50.514;9.678;2023-10-31T05:51:27;97145.38;;;9.72;100.00
29903;BME280;30288;50.514;9.678;2023-10-31T05:53:32;97146.34;;;9.69;100.00
29903;BME280;30288;50.514;9.678;2023-10-31T05:55:38;97147.28;;;9.66;100.00
29903;BME280;30288;50.514;9.678;2023-10-31T05:57:45;97148.94;;;9.68;100.00
29903;BME280;30288;50.514;9.678;2023-10-31T05:59:53;97152.31;;;9.66;100.00
29903;BME280;30288;50.514;9.678;2023-10-31T06:01:58;97151.28;;;9.71;100.00
29903;BME280;30288;50.514;9.678;2023-10-31T06:04:05;97150.41;;;9.72;100.00
29903;BME280;30288;50.514;9.678;2023-10-31T06:06:11;97143.75;;;9.71;100.00
29903;BME280;30288;50.514;9.678;2023-10-31T06:08:14;97152.31;;;9.66;100.00
29903;BME280;30288;50.514;9.678;2023-10-31T06:10:19;97152.31;;;9.66;100.00
29903;BME280;30288;50.514;9.678;2023-10-31T06:12:24;97151.59;;;9.64;100.00
29903;BME280;30288;50.514;9.678;2023-10-31T06:14:30;97154.13;;;9.64;100.00
29903;BME280;30288;50.514;9.678;2023-10-31T06:16:43;97164.16;;;9.64;100.00
29903;BME280;30288;50.514;9.678;2023-10-31T06:18:48;97164.00;;;9.68;100.00
29903;BME280;30288;50.514;9.678;2023-10-31T06:20:51;97162.97;;;9.72;100.00
29903;BME280;30288;50.514;9.678;2023-10-31T06:22:56;97164.66;;;9.71;100.00
29903;BME280;30288;50.514;9.678;2023-10-31T06:25:02;97168.81;;;9.72;100.00
29903;BME280;30288;50.514;9.678;2023-10-31T06:27:07;97168.56;;;9.77;100.00
29903;BME280;30288;50.514;9.678;2023-10-31T06:29:13;97170.34;;;9.75;100.00
29903;BME280;30288;50.514;9.678;2023-10-31T06:31:38;97173.78;;;9.74;100.00
29903;BME280;30288;50.514;9.678;2023-10-31T06:33:48;97177.16;;;9.73;100.00
29903;BME280;30288;50.514;9.678;2023-10-31T06:35:53;97178.63;;;9.77;100.00
29903;BME280;30288;50.514;9.678;2023-10-31T06:37:59;97171.97;;;9.76;100.00
29903;BME280;30288;50.514;9.678;2023-10-31T06:40:06;97183.50;;;9.80;100.00
29903;BME280;30288;50.514;9.678;2023-10-31T06:42:11;97180.09;;;9.81;100.00
29903;BME280;30288;50.514;9.678;2023-10-31T06:44:16;97194.31;;;9.82;100.00
29903;BME280;30288;50.514;9.678;2023-10-31T06:46:22;97201.84;;;9.82;100.00
29903;BME280;30288;50.514;9.678;2023-10-31T06:48:28;97197.53;;;9.84;100.00
29903;BME280;30288;50.514;9.678;2023-10-31T06:50:35;97203.97;;;9.89;100.00
29903;BME280;30288;50.514;9.678;2023-10-31T06:52:40;97187.94;;;9.92;100.00
29903;BME280;30288;50.514;9.678;2023-10-31T06:54:46;97208.63;;;9.97;100.00
29903;BME280;30288;50.514;9.678;2023-10-31T06:56:51;97197.19;;;9.91;100.00
29903;BME280;30288;50.514;9.678;2023-10-31T06:58:56;97211.63;;;9.88;100.00
29903;BME280;30288;50.514;9.678;2023-10-31T07:01:01;97204.06;;;9.88;100.00
29903;BME280;30288;50.514;9.678;2023-10-31T07:03:07;97200.56;;;9.90;100.00
29903;BME280;30288;50.514;9.678;2023-10-31T07:05:18;97204.50;;;9.96;100.00
29903;BME280;30288;50.514;9.678;2023-10-31T07:07:25;97207.72;;;9.98;100.00
29903;BME280;30288;50.514;9.678;2023-10-31T07:09:31;97209.53;;;9.96;100.00
29903;BME280;30288;50.514;9.678;2023-10-31T07:11:36;97218.75;;;9.95;100.00
29903;BME280;30288;50.514;9.678;2023-10-31T07:13:41;97221.34;;;9.94;100.00
29903;BME280;30288;50.514;9.678;2023-10-31T07:15:46;97222.97;;;9.95;100.00
29903;BME280;30288;50.514;9.678;2023-10-31T07:17:52;97230.28;;;9.99;100.00
29903;BME280;30288;50.514;9.678;2023-10-31T07:19:58;97222.69;;;10.01;100.00
29903;BME280;30288;50.514;9.678;2023-10-31T07:22:04;97237.91;;;9.98;100.00
29903;BME280;30288;50.514;9.678;2023-10-31T07:24:12;97228.59;;;10.00;100.00
29903;BME280;30288;50.514;9.678;2023-10-31T07:26:24;97226.09;;;10.00;100.00
29903;BME280;30288;50.514;9.678;2023-10-31T07:28:29;97229.34;;;10.02;100.00
29903;BME280;30288;50.514;9.678;2023-10-31T07:30:34;97241.91;;;10.02;100.00
29903;BME280;30288;50.514;9.678;2023-10-31T07:32:40;97244.13;;;10.08;100.00
29903;BME280;30288;50.514;9.678;2023-10-31T07:34:46;97240.88;;;10.06;100.00
29903;BME280;30288;50.514;9.678;2023-10-31T07:36:49;97239.09;;;10.08;100.00
29903;BME280;30288;50.514;9.678;2023-10-31T07:38:54;97254.16;;;10.08;100.00
29903;BME280;30288;50.514;9.678;2023-10-31T07:41:05;97255.81;;;10.09;100.00
29903;BME280;30288;50.514;9.678;2023-10-31T07:43:10;97252.56;;;10.07;100.00
29903;BME280;30288;50.514;9.678;2023-10-31T07:45:16;97264.22;;;10.08;100.00
29903;BME280;30288;50.514;9.678;2023-10-31T07:47:21;97252.25;;;10.13;100.00
29903;BME280;30288;50.514;9.678;2023-10-31T07:49:31;97260.53;;;10.15;100.00
29903;BME280;30288;50.514;9.678;2023-10-31T07:51:36;97259.94;;;10.27;100.00
29903;BME280;30288;50.514;9.678;2023-10-31T07:53:39;97263.22;;;10.29;100.00
29903;BME280;30288;50.514;9.678;2023-10-31T07:55:44;97274.75;;;10.33;100.00
29903;BME280;30288;50.514;9.678;2023-10-31T07:57:51;97272.28;;;10.32;100.00
29903;BME280;30288;50.514;9.678;2023-10-31T07:59:57;97275.63;;;10.32;100.00
29903;BME280;30288;50.514;9.678;2023-10-31T08:01:59;97269.53;;;10.36;100.00
29903;BME280;30288;50.514;9.678;2023-10-31T08:04:06;97273.56;;;10.40;100.00
29903;BME280;30288;50.514;9.678;2023-10-31T08:06:12;97274.13;;;10.45;100.00
29903;BME280;30288;50.514;9.678;2023-10-31T08:08:17;97279.16;;;10.45;100.00
29903;BME280;30288;50.514;9.678;2023-10-31T08:10:23;97280.94;;;10.43;100.00
29903;BME280;30288;50.514;9.678;2023-10-31T08:12:28;97288.66;;;10.40;100.00
29903;BME280;30288;50.514;9.678;2023-10-31T08:14:36;97284.56;;;10.38;100.00
29903;BME280;30288;50.514;9.678;2023-10-31T08:16:42;97303.31;;;10.32;100.00
29903;BME280;30288;50.514;9.678;2023-10-31T08:18:48;97287.50;;;10.30;100.00
29903;BME280;30288;50.514;9.678;2023-10-31T08:20:53;97293.69;;;10.23;100.00
29903;BME280;30288;50.514;9.678;2023-10-31T08:22:58;97305.25;;;10.27;100.00
29903;BME280;30288;50.514;9.678;2023-10-31T08:25:05;97306.88;;;10.28;100.00
29903;BME280;30288;50.514;9.678;2023-10-31T08:27:11;97306.88;;;10.28;100.00
29903;BME280;30288;50.514;9.678;2023-10-31T08:29:16;97308.66;;;10.26;100.00
29903;BME280;30288;50.514;9.678;2023-10-31T08:31:24;97310.44;;;10.24;100.00
29903;BME280;30288;50.514;9.678;2023-10-31T08:33:30;97311.91;;;10.28;100.00
29903;BME280;30288;50.514;9.678;2023-10-31T08:35:35;97321.97;;;10.28;100.00
29903;BME280;30288;50.514;9.678;2023-10-31T08:37:40;97328.47;;;10.32;100.00
29903;BME280;30288;50.514;9.678;2023-10-31T08:39:45;97323.44;;;10.32;100.00
29903;BME280;30288;50.514;9.678;2023-10-31T08:41:52;97323.59;;;10.29;100.00
29903;BME280;30288;50.514;9.678;2023-10-31T08:43:55;97325.31;;;10.29;100.00
29903;BME280;30288;50.514;9.678;2023-10-31T08:46:00;97329.16;;;10.36;100.00
29903;BME280;30288;50.514;9.678;2023-10-31T08:48:08;97330.41;;;10.44;100.00
29903;BME280;30288;50.514;9.678;2023-10-31T08:50:14;97336.03;;;10.49;100.00
29903;BME280;30288;50.514;9.678;2023-10-31T08:52:20;97337.16;;;10.60;100.00
29903;BME280;30288;50.514;9.678;2023-10-31T08:54:25;97344.16;;;10.55;100.00
29903;BME280;30288;50.514;9.678;2023-10-31T08:56:31;97339.13;;;10.55;100.00
29903;BME280;30288;50.514;9.678;2023-10-31T08:58:36;97345.75;;;10.56;100.00
29903;BME280;30288;50.514;9.678;2023-10-31T09:00:43;97350.97;;;10.52;100.00
29903;BME280;30288;50.514;9.678;2023-10-31T09:02:49;97351.19;;;10.48;100.00
29903;BME280;30288;50.514;9.678;2023-10-31T09:04:57;97347.78;;;10.49;100.00
29903;BME280;30288;50.514;9.678;2023-10-31T09:07:00;97357.97;;;10.46;100.00
29903;BME280;30288;50.514;9.678;2023-10-31T09:09:05;97354.34;;;10.51;100.00
29903;BME280;30288;50.514;9.678;2023-10-31T09:11:12;97356.16;;;10.49;100.00
29903;BME280;30288;50.514;9.678;2023-10-31T09:13:17;97366.50;;;10.43;100.00
29903;BME280;30288;50.514;9.678;2023-10-31T09:15:23;97367.09;;;10.48;100.00
29903;BME280;30288;50.514;9.678;2023-10-31T09:17:28;97365.75;;;10.59;100.00
29903;BME280;30288;50.514;9.678;2023-10-31T09:19:33;97373.75;;;10.67;100.00
29903;BME280;30288;50.514;9.678;2023-10-31T09:21:42;97369.75;;;10.63;100.00
29903;BME280;30288;50.514;9.678;2023-10-31T09:23:47;97377.00;;;10.69;100.00
29903;BME280;30288;50.514;9.678;2023-10-31T09:25:52;97377.59;;;10.74;100.00
29903;BME280;30288;50.514;9.678;2023-10-31T09:28:00;97380.91;;;10.74;100.00
29903;BME280;30288;50.514;9.678;2023-10-31T09:30:08;97385.28;;;10.71;100.00
29903;BME280;30288;50.514;9.678;2023-10-31T09:32:15;97394.53;;;10.70;100.00
29903;BME280;30288;50.514;9.678;2023-10-31T09:34:21;97392.13;;;10.69;100.00
29903;BME280;30288;50.514;9.678;2023-10-31T09:36:26;97400.38;;;10.71;100.00
29903;BME280;30288;50.514;9.678;2023-10-31T09:38:34;97395.88;;;10.77;100.00
29903;BME280;30288;50.514;9.678;2023-10-31T09:40:40;97403.50;;;10.76;100.00
29903;BME280;30288;50.514;9.678;2023-10-31T09:42:45;97402.84;;;10.72;100.00
29903;BME280;30288;50.514;9.678;2023-10-31T09:44:51;97403.78;;;10.70;100.00
29903;BME280;30288;50.514;9.678;2023-10-31T09:46:57;97411.28;;;10.71;100.00
29903;BME280;30288;50.514;9.678;2023-10-31T09:49:03;97414.84;;;10.67;100.00
29903;BME280;30288;50.514;9.678;2023-10-31T09:51:08;97418.91;;;10.70;100.00
29903;BME280;30288;50.514;9.678;2023-10-31T09:53:15;97418.75;;;10.73;100.00
29903;BME280;30288;50.514;9.678;2023-10-31T09:55:24;97412.44;;;10.81;100.00
29903;BME280;30288;50.514;9.678;2023-10-31T09:57:30;97419.84;;;11.02;100.00
29903;BME280;30288;50.514;9.678;2023-10-31T09:59:33;97415.75;;;10.99;100.00
29903;BME280;30288;50.514;9.678;2023-10-31T10:01:38;97425.69;;;11.02;100.00
29903;BME280;30288;50.514;9.678;2023-10-31T10:03:44;97412.03;;;11.06;100.00
29903;BME280;30288;50.514;9.678;2023-10-31T10:05:50;97416.38;;;11.20;100.00
29903;BME280;30288;50.514;9.678;2023-10-31T10:07:56;97417.41;;;11.16;100.00
29903;BME280;30288;50.514;9.678;2023-10-31T10:10:01;97407.13;;;11.03;100.00
29903;BME280;30288;50.514;9.678;2023-10-31T10:12:12;97404.25;;;10.93;100.00
29903;BME280;30288;50.514;9.678;2023-10-31T10:14:18;97401.69;;;10.95;100.00
29903;BME280;30288;50.514;9.678;2023-10-31T10:16:31;97412.16;;;11.03;100.00
29903;BME280;30288;50.514;9.678;2023-10-31T10:18:37;97425.47;;;11.22;100.00
29903;BME280;30288;50.514;9.678;2023-10-31T10:20:54;97420.72;;;11.49;100.00
29903;BME280;30288;50.514;9.678;2023-10-31T10:23:03;97418.63;;;11.73;100.00
29903;BME280;30288;50.514;9.678;2023-10-31T10:25:07;97414.72;;;11.83;100.00
29903;BME280;30288;50.514;9.678;2023-10-31T10:27:20;97424.97;;;11.80;100.00
29903;BME280;30288;50.514;9.678;2023-10-31T10:29:25;97436.25;;;11.57;100.00
29903;BME280;30288;50.514;9.678;2023-10-31T10:31:30;97430.28;;;11.43;100.00
29903;BME280;30288;50.514;9.678;2023-10-31T10:33:36;97432.88;;;11.25;100.00
29903;BME280;30288;50.514;9.678;2023-10-31T10:35:42;97429.91;;;11.17;100.00
29903;BME280;30288;50.514;9.678;2023-10-31T10:37:48;97430.31;;;11.10;100.00
29903;BME280;30288;50.514;9.678;2023-10-31T10:39:57;97421.94;;;11.09;100.00
29903;BME280;30288;50.514;9.678;2023-10-31T10:42:09;97431.22;;;11.09;100.00
29903;BME280;30288;50.514;9.678;2023-10-31T10:44:19;97434.63;;;11.08;100.00
29903;BME280;30288;50.514;9.678;2023-10-31T10:46:29;97438.28;;;11.02;100.00
29903;BME280;30288;50.514;9.678;2023-10-31T10:48:39;97445.97;;;10.99;100.00
29903;BME280;30288;50.514;9.678;2023-10-31T10:50:57;97438.59;;;10.96;100.00
29903;BME280;30288;50.514;9.678;2023-10-31T10:53:13;97437.69;;;10.97;100.00
29903;BME280;30288;50.514;9.678;2023-10-31T10:55:25;97434.25;;;10.98;100.00
29903;BME280;30288;50.514;9.678;2023-10-31T10:57:37;97434.50;;;10.93;100.00
29903;BME280;30288;50.514;9.678;2023-10-31T10:59:48;97439.47;;;10.95;100.00
29903;BME280;30288;50.514;9.678;2023-10-31T11:01:55;97426.44;;;10.87;100.00